sensor_id;sensor_type;location;lat;lon;timestamp;P1;durP1;ratioP1;P2;durP2;ratioP2
71622;SDS011;59473;53.214;5.728;2023-05-27T00:00:45;12.50;;;4.60;;
71622;SDS011;59473;53.214;5.728;2023-05-27T00:03:10;20.23;;;5.80;;
71622;SDS011;59473;53.214;5.728;2023-05-27T00:05:36;17.73;;;4.87;;
71622;SDS011;59473;53.214;5.728;2023-05-27T00:08:01;13.43;;;4.97;;
71622;SDS011;59473;53.214;5.728;2023-05-27T00:10:26;14.93;;;5.73;;
71622;SDS011;59473;53.214;5.728;2023-05-27T00:12:52;15.97;;;5.60;;
71622;SDS011;59473;53.214;5.728;2023-05-27T00:15:17;18.03;;;5.97;;
71622;SDS011;59473;53.214;5.728;2023-05-27T00:17:42;15.10;;;5.78;;
71622;SDS011;59473;53.214;5.728;2023-05-27T00:20:08;16.03;;;5.13;;
71622;SDS011;59473;53.214;5.728;2023-05-27T00:22:35;13.87;;;4.80;;
71622;SDS011;59473;53.214;5.728;2023-05-27T00:25:01;18.52;;;5.47;;
71622;SDS011;59473;53.214;5.728;2023-05-27T00:27:27;15.60;;;5.78;;
71622;SDS011;59473;53.214;5.728;2023-05-27T00:29:52;14.67;;;5.20;;
71622;SDS011;59473;53.214;5.728;2023-05-27T00:32:17;13.30;;;5.97;;
71622;SDS011;59473;53.214;5.728;2023-05-27T00:34:44;17.07;;;6.03;;
71622;SDS011;59473;53.214;5.728;2023-05-27T00:37:09;17.80;;;5.40;;
71622;SDS011;59473;53.214;5.728;2023-05-27T00:39:34;20.03;;;6.30;;
71622;SDS011;59473;53.214;5.728;2023-05-27T00:42:00;15.52;;;5.60;;
71622;SDS011;59473;53.214;5.728;2023-05-27T00:44:26;14.63;;;5.77;;
71622;SDS011;59473;53.214;5.728;2023-05-27T00:46:51;16.57;;;5.10;;
71622;SDS011;59473;53.214;5.728;2023-05-27T00:49:16;19.57;;;5.60;;
71622;SDS011;59473;53.214;5.728;2023-05-27T00:51:42;13.02;;;5.10;;
71622;SDS011;59473;53.214;5.728;2023-05-27T00:54:07;13.20;;;5.20;;
71622;SDS011;59473;53.214;5.728;2023-05-27T00:56:33;17.60;;;5.57;;
71622;SDS011;59473;53.214;5.728;2023-05-27T00:58:58;13.90;;;6.00;;
71622;SDS011;59473;53.214;5.728;2023-05-27T01:01:23;15.83;;;5.27;;
71622;SDS011;59473;53.214;5.728;2023-05-27T01:03:50;15.43;;;5.07;;
71622;SDS011;59473;53.214;5.728;2023-05-27T01:11:31;15.27;;;5.47;;
71622;SDS011;59473;53.214;5.728;2023-05-27T01:13:58;14.90;;;5.35;;
71622;SDS011;59473;53.214;5.728;2023-05-27T01:16:24;10.45;;;5.50;;
71622;SDS011;59473;53.214;5.728;2023-05-27T01:18:51;16.13;;;5.60;;
71622;SDS011;59473;53.214;5.728;2023-05-27T01:21:18;15.07;;;5.00;;
71622;SDS011;59473;53.214;5.728;2023-05-27T01:23:48;12.63;;;5.70;;
71622;SDS011;59473;53.214;5.728;2023-05-27T01:26:13;15.75;;;5.28;;
71622;SDS011;59473;53.214;5.728;2023-05-27T01:28:39;11.93;;;5.88;;
71622;SDS011;59473;53.214;5.728;2023-05-27T01:33:34;12.40;;;5.57;;
71622;SDS011;59473;53.214;5.728;2023-05-27T01:36:01;17.77;;;6.05;;
71622;SDS011;59473;53.214;5.728;2023-05-27T01:38:29;12.43;;;5.43;;
71622;SDS011;59473;53.214;5.728;2023-05-27T01:40:55;16.00;;;4.77;;
71622;SDS011;59473;53.214;5.728;2023-05-27T01:43:20;15.00;;;5.33;;
71622;SDS011;59473;53.214;5.728;2023-05-27T01:45:46;12.30;;;5.40;;
71622;SDS011;59473;53.214;5.728;2023-05-27T01:48:12;15.73;;;5.77;;
71622;SDS011;59473;53.214;5.728;2023-05-27T01:50:37;14.53;;;5.10;;
71622;SDS011;59473;53.214;5.728;2023-05-27T01:53:02;14.87;;;5.20;;
71622;SDS011;59473;53.214;5.728;2023-05-27T01:55:28;15.15;;;5.40;;
71622;SDS011;59473;53.214;5.728;2023-05-27T01:57:53;15.40;;;5.10;;
71622;SDS011;59473;53.214;5.728;2023-05-27T02:00:19;18.40;;;5.60;;
71622;SDS011;59473;53.214;5.728;2023-05-27T02:02:44;17.57;;;5.73;;
71622;SDS011;59473;53.214;5.728;2023-05-27T02:05:09;14.17;;;5.80;;
71622;SDS011;59473;53.214;5.728;2023-05-27T02:07:35;12.23;;;5.32;;
71622;SDS011;59473;53.214;5.728;2023-05-27T02:10:01;14.10;;;5.47;;
71622;SDS011;59473;53.214;5.728;2023-05-27T02:12:26;12.40;;;4.68;;
71622;SDS011;59473;53.214;5.728;2023-05-27T02:14:51;13.87;;;5.40;;
71622;SDS011;59473;53.214;5.728;2023-05-27T02:17:17;15.47;;;5.47;;
71622;SDS011;59473;53.214;5.728;2023-05-27T02:19:42;15.23;;;5.50;;
71622;SDS011;59473;53.214;5.728;2023-05-27T02:22:08;18.17;;;5.90;;
71622;SDS011;59473;53.214;5.728;2023-05-27T02:24:33;15.73;;;5.90;;
71622;SDS011;59473;53.214;5.728;2023-05-27T02:26:58;11.70;;;5.37;;
71622;SDS011;59473;53.214;5.728;2023-05-27T02:29:23;13.00;;;5.33;;
71622;SDS011;59473;53.214;5.728;2023-05-27T02:31:49;14.25;;;5.80;;
71622;SDS011;59473;53.214;5.728;2023-05-27T02:34:14;12.73;;;5.20;;
71622;SDS011;59473;53.214;5.728;2023-05-27T02:36:39;17.07;;;6.03;;
71622;SDS011;59473;53.214;5.728;2023-05-27T02:39:05;17.83;;;5.53;;
71622;SDS011;59473;53.214;5.728;2023-05-27T02:41:31;11.30;;;4.97;;
71622;SDS011;59473;53.214;5.728;2023-05-27T02:43:56;16.17;;;5.47;;
71622;SDS011;59473;53.214;5.728;2023-05-27T02:46:21;10.30;;;5.47;;
71622;SDS011;59473;53.214;5.728;2023-05-27T02:48:46;15.60;;;5.57;;
71622;SDS011;59473;53.214;5.728;2023-05-27T02:51:12;15.85;;;5.20;;
71622;SDS011;59473;53.214;5.728;2023-05-27T02:53:37;12.07;;;5.33;;
71622;SDS011;59473;53.214;5.728;2023-05-27T02:56:02;14.67;;;6.13;;
71622;SDS011;59473;53.214;5.728;2023-05-27T02:58:27;14.57;;;6.17;;
71622;SDS011;59473;53.214;5.728;2023-05-27T03:00:53;14.67;;;6.00;;
71622;SDS011;59473;53.214;5.728;2023-05-27T03:03:18;16.37;;;5.47;;
71622;SDS011;59473;53.214;5.728;2023-05-27T03:05:43;16.00;;;5.87;;
71622;SDS011;59473;53.214;5.728;2023-05-27T03:08:08;14.50;;;6.20;;
71622;SDS011;59473;53.214;5.728;2023-05-27T03:10:34;14.20;;;5.43;;
71622;SDS011;59473;53.214;5.728;2023-05-27T03:12:59;9.60;;;5.27;;
71622;SDS011;59473;53.214;5.728;2023-05-27T03:15:24;9.87;;;5.00;;
71622;SDS011;59473;53.214;5.728;2023-05-27T03:17:49;14.80;;;5.50;;
71622;SDS011;59473;53.214;5.728;2023-05-27T03:20:15;16.23;;;5.40;;
71622;SDS011;59473;53.214;5.728;2023-05-27T03:22:41;17.52;;;6.18;;
71622;SDS011;59473;53.214;5.728;2023-05-27T03:25:07;14.77;;;5.70;;
71622;SDS011;59473;53.214;5.728;2023-05-27T03:27:32;17.63;;;5.90;;
71622;SDS011;59473;53.214;5.728;2023-05-27T03:29:57;11.83;;;5.57;;
71622;SDS011;59473;53.214;5.728;2023-05-27T03:32:23;15.93;;;5.80;;
71622;SDS011;59473;53.214;5.728;2023-05-27T03:34:48;16.63;;;5.47;;
71622;SDS011;59473;53.214;5.728;2023-05-27T03:37:13;24.00;;;5.40;;
71622;SDS011;59473;53.214;5.728;2023-05-27T03:39:39;12.27;;;5.27;;
71622;SDS011;59473;53.214;5.728;2023-05-27T03:42:05;16.58;;;5.03;;
71622;SDS011;59473;53.214;5.728;2023-05-27T03:44:30;15.63;;;5.37;;
71622;SDS011;59473;53.214;5.728;2023-05-27T03:46:55;14.70;;;5.53;;
71622;SDS011;59473;53.214;5.728;2023-05-27T03:49:20;14.07;;;5.53;;
71622;SDS011;59473;53.214;5.728;2023-05-27T03:51:47;17.02;;;6.00;;
71622;SDS011;59473;53.214;5.728;2023-05-27T03:54:12;15.23;;;5.63;;
71622;SDS011;59473;53.214;5.728;2023-05-27T03:56:38;15.70;;;5.30;;
71622;SDS011;59473;53.214;5.728;2023-05-27T03:59:03;15.90;;;4.95;;
71622;SDS011;59473;53.214;5.728;2023-05-27T04:01:28;15.20;;;5.57;;
71622;SDS011;59473;53.214;5.728;2023-05-27T04:03:54;18.15;;;5.97;;
71622;SDS011;59473;53.214;5.728;2023-05-27T04:06:19;13.60;;;5.27;;
71622;SDS011;59473;53.214;5.728;2023-05-27T04:08:44;15.13;;;5.67;;
71622;SDS011;59473;53.214;5.728;2023-05-27T04:11:10;15.47;;;6.00;;
71622;SDS011;59473;53.214;5.728;2023-05-27T04:13:36;13.77;;;5.63;;
71622;SDS011;59473;53.214;5.728;2023-05-27T04:16:01;14.13;;;6.00;;
71622;SDS011;59473;53.214;5.728;2023-05-27T04:18:26;13.80;;;5.03;;
71622;SDS011;59473;53.214;5.728;2023-05-27T04:20:51;14.40;;;5.47;;
71622;SDS011;59473;53.214;5.728;2023-05-27T04:23:17;15.93;;;5.57;;
71622;SDS011;59473;53.214;5.728;2023-05-27T04:25:42;11.53;;;4.60;;
71622;SDS011;59473;53.214;5.728;2023-05-27T04:28:07;17.70;;;5.60;;
71622;SDS011;59473;53.214;5.728;2023-05-27T04:30:34;17.63;;;5.15;;
71622;SDS011;59473;53.214;5.728;2023-05-27T04:32:59;11.48;;;4.90;;
71622;SDS011;59473;53.214;5.728;2023-05-27T04:35:25;14.27;;;4.97;;
71622;SDS011;59473;53.214;5.728;2023-05-27T04:37:50;15.90;;;5.23;;
71622;SDS011;59473;53.214;5.728;2023-05-27T04:40:16;15.83;;;5.70;;
71622;SDS011;59473;53.214;5.728;2023-05-27T04:42:41;14.20;;;4.90;;
71622;SDS011;59473;53.214;5.728;2023-05-27T04:45:08;16.35;;;5.40;;
71622;SDS011;59473;53.214;5.728;2023-05-27T04:47:35;17.90;;;5.43;;
71622;SDS011;59473;53.214;5.728;2023-05-27T04:50:06;15.53;;;5.17;;
71622;SDS011;59473;53.214;5.728;2023-05-27T04:52:31;13.93;;;5.35;;
71622;SDS011;59473;53.214;5.728;2023-05-27T04:55:04;15.27;;;5.55;;
71622;SDS011;59473;53.214;5.728;2023-05-27T04:57:30;16.17;;;4.57;;
71622;SDS011;59473;53.214;5.728;2023-05-27T04:59:55;12.03;;;5.00;;
71622;SDS011;59473;53.214;5.728;2023-05-27T05:02:38;15.43;;;5.25;;
71622;SDS011;59473;53.214;5.728;2023-05-27T05:07:30;19.17;;;5.40;;
71622;SDS011;59473;53.214;5.728;2023-05-27T05:09:55;16.70;;;5.43;;
71622;SDS011;59473;53.214;5.728;2023-05-27T05:12:21;13.60;;;5.38;;
71622;SDS011;59473;53.214;5.728;2023-05-27T05:14:46;10.43;;;4.90;;
71622;SDS011;59473;53.214;5.728;2023-05-27T05:17:11;16.50;;;4.90;;
71622;SDS011;59473;53.214;5.728;2023-05-27T05:19:36;19.43;;;5.97;;
71622;SDS011;59473;53.214;5.728;2023-05-27T05:22:02;17.57;;;5.03;;
71622;SDS011;59473;53.214;5.728;2023-05-27T05:24:27;20.43;;;5.00;;
71622;SDS011;59473;53.214;5.728;2023-05-27T05:26:52;16.83;;;4.70;;
71622;SDS011;59473;53.214;5.728;2023-05-27T05:29:17;16.60;;;5.23;;
71622;SDS011;59473;53.214;5.728;2023-05-27T05:31:43;18.27;;;5.07;;
71622;SDS011;59473;53.214;5.728;2023-05-27T05:34:10;18.90;;;5.18;;
71622;SDS011;59473;53.214;5.728;2023-05-27T05:36:35;19.97;;;5.57;;
71622;SDS011;59473;53.214;5.728;2023-05-27T05:39:01;23.83;;;5.50;;
71622;SDS011;59473;53.214;5.728;2023-05-27T05:41:27;15.60;;;4.60;;
71622;SDS011;59473;53.214;5.728;2023-05-27T05:43:53;17.92;;;5.57;;
71622;SDS011;59473;53.214;5.728;2023-05-27T05:46:18;16.70;;;4.60;;
71622;SDS011;59473;53.214;5.728;2023-05-27T05:48:43;23.05;;;6.10;;
71622;SDS011;59473;53.214;5.728;2023-05-27T05:51:08;21.98;;;5.72;;
71622;SDS011;59473;53.214;5.728;2023-05-27T05:53:34;20.95;;;5.68;;
71622;SDS011;59473;53.214;5.728;2023-05-27T05:55:59;19.13;;;5.03;;
71622;SDS011;59473;53.214;5.728;2023-05-27T05:58:24;22.27;;;5.17;;
71622;SDS011;59473;53.214;5.728;2023-05-27T06:00:50;16.83;;;5.57;;
71622;SDS011;59473;53.214;5.728;2023-05-27T06:03:15;17.77;;;5.17;;
71622;SDS011;59473;53.214;5.728;2023-05-27T06:05:41;15.10;;;4.77;;
71622;SDS011;59473;53.214;5.728;2023-05-27T06:08:06;18.90;;;4.70;;
71622;SDS011;59473;53.214;5.728;2023-05-27T06:10:31;22.70;;;5.00;;
71622;SDS011;59473;53.214;5.728;2023-05-27T06:12:56;18.47;;;4.77;;
71622;SDS011;59473;53.214;5.728;2023-05-27T06:15:22;15.25;;;5.13;;
71622;SDS011;59473;53.214;5.728;2023-05-27T06:17:47;16.63;;;5.45;;
71622;SDS011;59473;53.214;5.728;2023-05-27T06:20:12;19.73;;;5.40;;
71622;SDS011;59473;53.214;5.728;2023-05-27T06:22:37;16.20;;;4.80;;
71622;SDS011;59473;53.214;5.728;2023-05-27T06:25:03;16.60;;;5.20;;
71622;SDS011;59473;53.214;5.728;2023-05-27T06:27:28;18.20;;;4.60;;
71622;SDS011;59473;53.214;5.728;2023-05-27T06:29:53;20.20;;;4.60;;
71622;SDS011;59473;53.214;5.728;2023-05-27T06:32:19;20.07;;;4.53;;
71622;SDS011;59473;53.214;5.728;2023-05-27T06:34:45;16.60;;;4.70;;
71622;SDS011;59473;53.214;5.728;2023-05-27T06:37:11;17.80;;;4.55;;
71622;SDS011;59473;53.214;5.728;2023-05-27T06:39:36;16.30;;;4.43;;
71622;SDS011;59473;53.214;5.728;2023-05-27T06:42:01;16.50;;;4.63;;
71622;SDS011;59473;53.214;5.728;2023-05-27T06:44:27;12.13;;;4.23;;
71622;SDS011;59473;53.214;5.728;2023-05-27T06:46:52;16.95;;;4.55;;
71622;SDS011;59473;53.214;5.728;2023-05-27T06:49:17;17.95;;;4.60;;
71622;SDS011;59473;53.214;5.728;2023-05-27T06:51:42;19.17;;;4.10;;
71622;SDS011;59473;53.214;5.728;2023-05-27T06:54:08;15.85;;;4.70;;
71622;SDS011;59473;53.214;5.728;2023-05-27T06:56:33;19.63;;;4.70;;
71622;SDS011;59473;53.214;5.728;2023-05-27T06:58:58;18.20;;;4.50;;
71622;SDS011;59473;53.214;5.728;2023-05-27T07:01:24;18.37;;;4.40;;
71622;SDS011;59473;53.214;5.728;2023-05-27T07:03:49;14.70;;;4.07;;
71622;SDS011;59473;53.214;5.728;2023-05-27T07:06:15;14.13;;;4.20;;
71622;SDS011;59473;53.214;5.728;2023-05-27T07:08:41;16.67;;;4.38;;
71622;SDS011;59473;53.214;5.728;2023-05-27T07:11:06;16.83;;;4.10;;
71622;SDS011;59473;53.214;5.728;2023-05-27T07:13:31;22.60;;;4.37;;
71622;SDS011;59473;53.214;5.728;2023-05-27T07:15:56;14.47;;;4.33;;
71622;SDS011;59473;53.214;5.728;2023-05-27T07:18:22;19.70;;;4.50;;
71622;SDS011;59473;53.214;5.728;2023-05-27T07:20:47;21.47;;;4.60;;
71622;SDS011;59473;53.214;5.728;2023-05-27T07:23:12;20.90;;;4.27;;
71622;SDS011;59473;53.214;5.728;2023-05-27T07:25:37;16.17;;;4.27;;
71622;SDS011;59473;53.214;5.728;2023-05-27T07:28:03;16.20;;;3.90;;
71622;SDS011;59473;53.214;5.728;2023-05-27T07:30:28;16.20;;;3.67;;
71622;SDS011;59473;53.214;5.728;2023-05-27T07:32:53;13.95;;;4.65;;
71622;SDS011;59473;53.214;5.728;2023-05-27T07:35:19;13.57;;;3.72;;
71622;SDS011;59473;53.214;5.728;2023-05-27T07:37:44;14.53;;;3.33;;
71622;SDS011;59473;53.214;5.728;2023-05-27T07:40:09;14.40;;;3.83;;
71622;SDS011;59473;53.214;5.728;2023-05-27T07:42:35;17.00;;;3.37;;
71622;SDS011;59473;53.214;5.728;2023-05-27T07:45:01;16.50;;;3.42;;
71622;SDS011;59473;53.214;5.728;2023-05-27T07:47:26;12.52;;;3.20;;
71622;SDS011;59473;53.214;5.728;2023-05-27T07:49:52;16.77;;;3.67;;
71622;SDS011;59473;53.214;5.728;2023-05-27T07:52:17;15.57;;;3.50;;
71622;SDS011;59473;53.214;5.728;2023-05-27T07:54:42;13.17;;;3.30;;
71622;SDS011;59473;53.214;5.728;2023-05-27T07:57:07;16.57;;;3.17;;
71622;SDS011;59473;53.214;5.728;2023-05-27T07:59:33;15.47;;;3.20;;
71622;SDS011;59473;53.214;5.728;2023-05-27T08:01:58;15.07;;;3.43;;
71622;SDS011;59473;53.214;5.728;2023-05-27T08:04:23;14.37;;;3.07;;
71622;SDS011;59473;53.214;5.728;2023-05-27T08:06:49;16.63;;;3.53;;
71622;SDS011;59473;53.214;5.728;2023-05-27T08:09:14;12.67;;;3.17;;
71622;SDS011;59473;53.214;5.728;2023-05-27T08:11:40;15.07;;;3.30;;
71622;SDS011;59473;53.214;5.728;2023-05-27T08:14:05;17.07;;;3.27;;
71622;SDS011;59473;53.214;5.728;2023-05-27T08:16:30;16.80;;;3.00;;
71622;SDS011;59473;53.214;5.728;2023-05-27T08:18:55;14.93;;;3.33;;
71622;SDS011;59473;53.214;5.728;2023-05-27T08:21:20;11.77;;;3.27;;
71622;SDS011;59473;53.214;5.728;2023-05-27T08:23:46;13.60;;;3.37;;
71622;SDS011;59473;53.214;5.728;2023-05-27T08:26:11;14.13;;;3.57;;
71622;SDS011;59473;53.214;5.728;2023-05-27T08:28:36;14.37;;;3.67;;
71622;SDS011;59473;53.214;5.728;2023-05-27T08:31:05;19.50;;;3.77;;
71622;SDS011;59473;53.214;5.728;2023-05-27T08:33:30;13.02;;;3.35;;
71622;SDS011;59473;53.214;5.728;2023-05-27T08:35:56;13.43;;;3.70;;
71622;SDS011;59473;53.214;5.728;2023-05-27T08:38:21;18.27;;;3.50;;
71622;SDS011;59473;53.214;5.728;2023-05-27T08:40:47;14.50;;;3.50;;
71622;SDS011;59473;53.214;5.728;2023-05-27T08:43:12;13.93;;;4.20;;
71622;SDS011;59473;53.214;5.728;2023-05-27T08:45:37;16.93;;;4.17;;
71622;SDS011;59473;53.214;5.728;2023-05-27T08:48:06;16.48;;;3.80;;
71622;SDS011;59473;53.214;5.728;2023-05-27T08:50:31;14.15;;;4.03;;
71622;SDS011;59473;53.214;5.728;2023-05-27T08:52:57;14.80;;;3.40;;
71622;SDS011;59473;53.214;5.728;2023-05-27T08:55:22;16.93;;;4.10;;
71622;SDS011;59473;53.214;5.728;2023-05-27T08:57:51;15.70;;;3.87;;
71622;SDS011;59473;53.214;5.728;2023-05-27T09:00:16;16.90;;;3.78;;
71622;SDS011;59473;53.214;5.728;2023-05-27T09:02:42;12.30;;;4.00;;
71622;SDS011;59473;53.214;5.728;2023-05-27T09:05:08;15.67;;;4.00;;
71622;SDS011;59473;53.214;5.728;2023-05-27T09:07:34;18.38;;;4.18;;
71622;SDS011;59473;53.214;5.728;2023-05-27T09:10:00;18.27;;;4.13;;
71622;SDS011;59473;53.214;5.728;2023-05-27T09:12:26;16.90;;;4.00;;
71622;SDS011;59473;53.214;5.728;2023-05-27T09:14:52;14.55;;;3.63;;
71622;SDS011;59473;53.214;5.728;2023-05-27T09:17:19;19.20;;;4.60;;
71622;SDS011;59473;53.214;5.728;2023-05-27T09:19:44;14.60;;;3.83;;
71622;SDS011;59473;53.214;5.728;2023-05-27T09:22:19;14.88;;;3.55;;
71622;SDS011;59473;53.214;5.728;2023-05-27T09:24:44;17.63;;;4.13;;
71622;SDS011;59473;53.214;5.728;2023-05-27T09:27:09;19.70;;;4.60;;
71622;SDS011;59473;53.214;5.728;2023-05-27T09:29:37;16.50;;;4.18;;
71622;SDS011;59473;53.214;5.728;2023-05-27T09:32:02;14.15;;;4.07;;
71622;SDS011;59473;53.214;5.728;2023-05-27T09:34:28;19.38;;;4.45;;
71622;SDS011;59473;53.214;5.728;2023-05-27T09:36:54;16.25;;;4.50;;
71622;SDS011;59473;53.214;5.728;2023-05-27T09:39:21;16.13;;;4.33;;
71622;SDS011;59473;53.214;5.728;2023-05-27T09:41:52;14.23;;;4.10;;
71622;SDS011;59473;53.214;5.728;2023-05-27T09:44:18;19.48;;;4.47;;
71622;SDS011;59473;53.214;5.728;2023-05-27T09:46:43;16.37;;;4.30;;
71622;SDS011;59473;53.214;5.728;2023-05-27T09:49:09;16.08;;;4.10;;
71622;SDS011;59473;53.214;5.728;2023-05-27T09:51:34;17.83;;;4.03;;
71622;SDS011;59473;53.214;5.728;2023-05-27T09:54:01;16.87;;;4.60;;
71622;SDS011;59473;53.214;5.728;2023-05-27T09:56:26;17.88;;;4.35;;
71622;SDS011;59473;53.214;5.728;2023-05-27T09:58:54;14.93;;;4.50;;
71622;SDS011;59473;53.214;5.728;2023-05-27T10:01:20;20.50;;;4.32;;
71622;SDS011;59473;53.214;5.728;2023-05-27T10:03:45;16.53;;;4.83;;
71622;SDS011;59473;53.214;5.728;2023-05-27T10:06:14;14.95;;;4.15;;
71622;SDS011;59473;53.214;5.728;2023-05-27T10:08:41;16.13;;;4.53;;
71622;SDS011;59473;53.214;5.728;2023-05-27T10:11:07;18.10;;;4.35;;
71622;SDS011;59473;53.214;5.728;2023-05-27T10:13:32;18.77;;;4.77;;
71622;SDS011;59473;53.214;5.728;2023-05-27T10:15:58;15.70;;;4.60;;
71622;SDS011;59473;53.214;5.728;2023-05-27T10:18:24;14.83;;;4.50;;
71622;SDS011;59473;53.214;5.728;2023-05-27T10:20:50;16.83;;;4.28;;
71622;SDS011;59473;53.214;5.728;2023-05-27T10:23:20;15.87;;;4.60;;
71622;SDS011;59473;53.214;5.728;2023-05-27T10:25:50;14.43;;;4.03;;
71622;SDS011;59473;53.214;5.728;2023-05-27T10:28:32;16.00;;;4.25;;
71622;SDS011;59473;53.214;5.728;2023-05-27T10:33:30;16.13;;;4.72;;
71622;SDS011;59473;53.214;5.728;2023-05-27T10:35:55;16.10;;;4.63;;
71622;SDS011;59473;53.214;5.728;2023-05-27T10:38:21;15.43;;;4.20;;
71622;SDS011;59473;53.214;5.728;2023-05-27T10:40:47;13.30;;;4.15;;
71622;SDS011;59473;53.214;5.728;2023-05-27T10:43:19;16.67;;;4.57;;
71622;SDS011;59473;53.214;5.728;2023-05-27T10:45:44;20.67;;;5.07;;
71622;SDS011;59473;53.214;5.728;2023-05-27T10:48:19;16.33;;;4.57;;
71622;SDS011;59473;53.214;5.728;2023-05-27T10:50:51;17.58;;;4.63;;
71622;SDS011;59473;53.214;5.728;2023-05-27T10:53:20;17.45;;;5.32;;
71622;SDS011;59473;53.214;5.728;2023-05-27T10:55:48;22.35;;;4.90;;
71622;SDS011;59473;53.214;5.728;2023-05-27T10:58:15;16.20;;;4.97;;
71622;SDS011;59473;53.214;5.728;2023-05-27T11:00:41;15.70;;;4.63;;
71622;SDS011;59473;53.214;5.728;2023-05-27T11:03:15;15.45;;;4.72;;
71622;SDS011;59473;53.214;5.728;2023-05-27T11:05:41;17.85;;;4.88;;
71622;SDS011;59473;53.214;5.728;2023-05-27T11:08:10;17.73;;;5.20;;
71622;SDS011;59473;53.214;5.728;2023-05-27T11:10:36;17.98;;;5.65;;
71622;SDS011;59473;53.214;5.728;2023-05-27T11:13:01;19.17;;;4.37;;
71622;SDS011;59473;53.214;5.728;2023-05-27T11:15:26;19.80;;;5.17;;
71622;SDS011;59473;53.214;5.728;2023-05-27T11:17:51;13.60;;;4.40;;
71622;SDS011;59473;53.214;5.728;2023-05-27T11:20:17;19.20;;;5.63;;
71622;SDS011;59473;53.214;5.728;2023-05-27T11:22:48;16.15;;;5.00;;
71622;SDS011;59473;53.214;5.728;2023-05-27T11:25:13;14.83;;;4.30;;
71622;SDS011;59473;53.214;5.728;2023-05-27T11:27:39;19.23;;;4.73;;
71622;SDS011;59473;53.214;5.728;2023-05-27T11:30:06;18.73;;;5.40;;
71622;SDS011;59473;53.214;5.728;2023-05-27T11:32:35;15.77;;;4.95;;
71622;SDS011;59473;53.214;5.728;2023-05-27T11:35:01;17.85;;;5.32;;
71622;SDS011;59473;53.214;5.728;2023-05-27T11:37:31;14.80;;;4.70;;
71622;SDS011;59473;53.214;5.728;2023-05-27T11:39:56;17.23;;;5.30;;
71622;SDS011;59473;53.214;5.728;2023-05-27T11:42:21;20.10;;;4.93;;
71622;SDS011;59473;53.214;5.728;2023-05-27T11:44:51;15.27;;;4.67;;
71622;SDS011;59473;53.214;5.728;2023-05-27T11:47:17;16.52;;;4.97;;
71622;SDS011;59473;53.214;5.728;2023-05-27T11:49:42;17.83;;;5.67;;
71622;SDS011;59473;53.214;5.728;2023-05-27T11:52:07;14.33;;;5.13;;
71622;SDS011;59473;53.214;5.728;2023-05-27T11:54:35;17.60;;;4.97;;
71622;SDS011;59473;53.214;5.728;2023-05-27T11:57:02;15.85;;;4.57;;
71622;SDS011;59473;53.214;5.728;2023-05-27T11:59:31;14.32;;;5.13;;
71622;SDS011;59473;53.214;5.728;2023-05-27T12:01:56;15.73;;;4.83;;
71622;SDS011;59473;53.214;5.728;2023-05-27T12:04:22;14.10;;;4.70;;
71622;SDS011;59473;53.214;5.728;2023-05-27T12:06:47;17.97;;;5.10;;
71622;SDS011;59473;53.214;5.728;2023-05-27T12:09:13;18.57;;;5.37;;
71622;SDS011;59473;53.214;5.728;2023-05-27T12:11:39;16.50;;;5.20;;
71622;SDS011;59473;53.214;5.728;2023-05-27T12:14:04;24.30;;;5.77;;
71622;SDS011;59473;53.214;5.728;2023-05-27T12:16:30;16.27;;;4.93;;
71622;SDS011;59473;53.214;5.728;2023-05-27T12:18:55;13.10;;;4.72;;
71622;SDS011;59473;53.214;5.728;2023-05-27T12:21:21;14.50;;;5.10;;
71622;SDS011;59473;53.214;5.728;2023-05-27T12:23:46;17.95;;;5.15;;
71622;SDS011;59473;53.214;5.728;2023-05-27T12:26:12;15.50;;;5.38;;
71622;SDS011;59473;53.214;5.728;2023-05-27T12:28:38;15.93;;;4.80;;
71622;SDS011;59473;53.214;5.728;2023-05-27T12:31:03;21.17;;;5.47;;
71622;SDS011;59473;53.214;5.728;2023-05-27T12:33:29;16.65;;;4.72;;
71622;SDS011;59473;53.214;5.728;2023-05-27T12:35:54;20.00;;;5.90;;
71622;SDS011;59473;53.214;5.728;2023-05-27T12:38:19;19.80;;;5.47;;
71622;SDS011;59473;53.214;5.728;2023-05-27T12:40:45;19.33;;;4.80;;
71622;SDS011;59473;53.214;5.728;2023-05-27T12:43:10;18.30;;;5.23;;
71622;SDS011;59473;53.214;5.728;2023-05-27T12:45:35;24.42;;;5.72;;
71622;SDS011;59473;53.214;5.728;2023-05-27T12:48:00;17.60;;;4.82;;
71622;SDS011;59473;53.214;5.728;2023-05-27T12:50:26;19.77;;;5.13;;
71622;SDS011;59473;53.214;5.728;2023-05-27T12:52:52;17.03;;;4.50;;
71622;SDS011;59473;53.214;5.728;2023-05-27T12:55:18;15.02;;;4.85;;
71622;SDS011;59473;53.214;5.728;2023-05-27T12:57:47;22.70;;;5.80;;
71622;SDS011;59473;53.214;5.728;2023-05-27T13:00:14;25.07;;;5.87;;
71622;SDS011;59473;53.214;5.728;2023-05-27T13:02:39;21.55;;;4.75;;
71622;SDS011;59473;53.214;5.728;2023-05-27T13:05:05;18.45;;;4.78;;
71622;SDS011;59473;53.214;5.728;2023-05-27T13:07:34;13.25;;;3.95;;
71622;SDS011;59473;53.214;5.728;2023-05-27T13:10:03;17.80;;;5.27;;
71622;SDS011;59473;53.214;5.728;2023-05-27T13:12:28;18.35;;;3.88;;
71622;SDS011;59473;53.214;5.728;2023-05-27T13:14:54;18.87;;;4.83;;
71622;SDS011;59473;53.214;5.728;2023-05-27T13:17:19;19.20;;;4.80;;
71622;SDS011;59473;53.214;5.728;2023-05-27T13:19:44;18.77;;;4.38;;
71622;SDS011;59473;53.214;5.728;2023-05-27T13:22:09;17.92;;;4.57;;
71622;SDS011;59473;53.214;5.728;2023-05-27T13:24:35;15.87;;;4.73;;
71622;SDS011;59473;53.214;5.728;2023-05-27T13:27:00;18.37;;;4.30;;
71622;SDS011;59473;53.214;5.728;2023-05-27T13:29:26;18.60;;;4.70;;
71622;SDS011;59473;53.214;5.728;2023-05-27T13:31:51;21.13;;;5.40;;
71622;SDS011;59473;53.214;5.728;2023-05-27T13:34:16;16.20;;;5.13;;
71622;SDS011;59473;53.214;5.728;2023-05-27T13:36:42;22.30;;;4.50;;
71622;SDS011;59473;53.214;5.728;2023-05-27T13:39:07;17.00;;;4.60;;
71622;SDS011;59473;53.214;5.728;2023-05-27T13:41:32;15.00;;;4.45;;
71622;SDS011;59473;53.214;5.728;2023-05-27T13:43:57;19.80;;;5.20;;
71622;SDS011;59473;53.214;5.728;2023-05-27T13:46:23;20.17;;;3.90;;
71622;SDS011;59473;53.214;5.728;2023-05-27T13:48:48;24.40;;;5.23;;
71622;SDS011;59473;53.214;5.728;2023-05-27T13:51:13;19.83;;;4.97;;
71622;SDS011;59473;53.214;5.728;2023-05-27T13:53:39;19.37;;;5.40;;
71622;SDS011;59473;53.214;5.728;2023-05-27T13:56:04;19.27;;;5.23;;
71622;SDS011;59473;53.214;5.728;2023-05-27T13:58:29;17.50;;;4.90;;
71622;SDS011;59473;53.214;5.728;2023-05-27T14:00:54;15.50;;;5.27;;
71622;SDS011;59473;53.214;5.728;2023-05-27T14:03:20;20.35;;;5.43;;
71622;SDS011;59473;53.214;5.728;2023-05-27T14:05:45;22.17;;;5.20;;
71622;SDS011;59473;53.214;5.728;2023-05-27T14:08:11;23.23;;;5.90;;
71622;SDS011;59473;53.214;5.728;2023-05-27T14:10:36;17.77;;;5.27;;
71622;SDS011;59473;53.214;5.728;2023-05-27T14:13:01;25.17;;;5.60;;
71622;SDS011;59473;53.214;5.728;2023-05-27T14:15:27;19.83;;;5.03;;
71622;SDS011;59473;53.214;5.728;2023-05-27T14:17:56;22.80;;;5.30;;
71622;SDS011;59473;53.214;5.728;2023-05-27T14:20:22;21.80;;;5.88;;
71622;SDS011;59473;53.214;5.728;2023-05-27T14:22:47;20.70;;;5.30;;
71622;SDS011;59473;53.214;5.728;2023-05-27T14:25:12;25.47;;;6.27;;
71622;SDS011;59473;53.214;5.728;2023-05-27T14:27:39;22.87;;;5.63;;
71622;SDS011;59473;53.214;5.728;2023-05-27T14:30:04;25.83;;;5.93;;
71622;SDS011;59473;53.214;5.728;2023-05-27T14:32:30;21.10;;;5.70;;
71622;SDS011;59473;53.214;5.728;2023-05-27T14:34:55;26.40;;;6.40;;
71622;SDS011;59473;53.214;5.728;2023-05-27T14:37:21;18.73;;;5.77;;
71622;SDS011;59473;53.214;5.728;2023-05-27T14:39:46;21.43;;;5.37;;